sensor_id;sensor_type;location;lat;lon;timestamp;temperature;humidity
33508;DHT22;25568;37.410;-122.096;2023-03-04T00:01:45;17.20;84.40
33508;DHT22;25568;37.410;-122.096;2023-03-04T00:04:15;17.30;84.40
33508;DHT22;25568;37.410;-122.096;2023-03-04T00:06:43;17.30;84.30
33508;DHT22;25568;37.410;-122.096;2023-03-04T00:09:12;17.30;84.20
33508;DHT22;25568;37.410;-122.096;2023-03-04T00:11:41;17.30;84.10
33508;DHT22;25568;37.410;-122.096;2023-03-04T00:14:10;17.30;84.20
33508;DHT22;25568;37.410;-122.096;2023-03-04T00:16:40;17.30;84.30
33508;DHT22;25568;37.410;-122.096;2023-03-04T00:19:10;17.30;84.30
33508;DHT22;25568;37.410;-122.096;2023-03-04T00:21:38;17.30;84.30
33508;DHT22;25568;37.410;-122.096;2023-03-04T00:24:07;17.30;84.40
33508;DHT22;25568;37.410;-122.096;2023-03-04T00:26:36;17.30;84.40
33508;DHT22;25568;37.410;-122.096;2023-03-04T00:29:05;17.40;84.50
33508;DHT22;25568;37.410;-122.096;2023-03-04T00:31:34;17.40;84.50
33508;DHT22;25568;37.410;-122.096;2023-03-04T00:34:04;17.40;84.50
33508;DHT22;25568;37.410;-122.096;2023-03-04T00:36:33;17.40;84.50
33508;DHT22;25568;37.410;-122.096;2023-03-04T00:39:02;17.40;84.50
33508;DHT22;25568;37.410;-122.096;2023-03-04T00:41:31;17.40;84.50
33508;DHT22;25568;37.410;-122.096;2023-03-04T00:44:00;17.40;84.50
33508;DHT22;25568;37.410;-122.096;2023-03-04T00:46:29;17.40;84.50
33508;DHT22;25568;37.410;-122.096;2023-03-04T00:48:58;17.40;84.50
33508;DHT22;25568;37.410;-122.096;2023-03-04T00:51:28;17.50;84.50
33508;DHT22;25568;37.410;-122.096;2023-03-04T00:53:57;17.50;84.60
33508;DHT22;25568;37.410;-122.096;2023-03-04T00:56:26;17.40;84.50
33508;DHT22;25568;37.410;-122.096;2023-03-04T00:58:55;17.50;84.50
33508;DHT22;25568;37.410;-122.096;2023-03-04T01:01:23;17.50;84.50
33508;DHT22;25568;37.410;-122.096;2023-03-04T01:03:52;17.50;84.50
33508;DHT22;25568;37.410;-122.096;2023-03-04T01:06:21;17.50;84.40
33508;DHT22;25568;37.410;-122.096;2023-03-04T01:08:51;17.50;84.50
33508;DHT22;25568;37.410;-122.096;2023-03-04T01:11:20;17.50;84.40
33508;DHT22;25568;37.410;-122.096;2023-03-04T01:13:49;17.50;84.30
33508;DHT22;25568;37.410;-122.096;2023-03-04T01:16:18;17.50;84.30
33508;DHT22;25568;37.410;-122.096;2023-03-04T01:18:47;17.50;84.30
33508;DHT22;25568;37.410;-122.096;2023-03-04T01:21:16;17.60;84.30
33508;DHT22;25568;37.410;-122.096;2023-03-04T01:23:44;17.60;84.30
33508;DHT22;25568;37.410;-122.096;2023-03-04T01:26:15;17.50;84.10
33508;DHT22;25568;37.410;-122.096;2023-03-04T01:28:44;17.50;84.10
33508;DHT22;25568;37.410;-122.096;2023-03-04T01:31:13;17.60;84.10
33508;DHT22;25568;37.410;-122.096;2023-03-04T01:33:41;17.60;84.10
33508;DHT22;25568;37.410;-122.096;2023-03-04T01:36:10;17.60;84.10
33508;DHT22;25568;37.410;-122.096;2023-03-04T01:38:39;17.60;84.00
33508;DHT22;25568;37.410;-122.096;2023-03-04T01:41:08;17.60;84.00
33508;DHT22;25568;37.410;-122.096;2023-03-04T01:43:39;17.60;84.00
33508;DHT22;25568;37.410;-122.096;2023-03-04T01:46:10;17.60;84.00
33508;DHT22;25568;37.410;-122.096;2023-03-04T01:48:40;17.60;84.00
33508;DHT22;25568;37.410;-122.096;2023-03-04T01:51:12;17.60;84.10
33508;DHT22;25568;37.410;-122.096;2023-03-04T01:53:42;17.60;84.50
33508;DHT22;25568;37.410;-122.096;2023-03-04T01:56:15;17.70;84.80
33508;DHT22;25568;37.410;-122.096;2023-03-04T01:59:04;17.70;85.10
33508;DHT22;25568;37.410;-122.096;2023-03-04T02:01:34;17.70;85.30
33508;DHT22;25568;37.410;-122.096;2023-03-04T02:04:03;17.70;85.40
33508;DHT22;25568;37.410;-122.096;2023-03-04T02:06:32;17.70;85.60
33508;DHT22;25568;37.410;-122.096;2023-03-04T02:09:02;17.70;85.70
33508;DHT22;25568;37.410;-122.096;2023-03-04T02:11:31;17.70;85.70
33508;DHT22;25568;37.410;-122.096;2023-03-04T02:14:02;17.70;85.90
33508;DHT22;25568;37.410;-122.096;2023-03-04T02:16:31;17.70;85.90
33508;DHT22;25568;37.410;-122.096;2023-03-04T02:19:01;17.70;85.90
33508;DHT22;25568;37.410;-122.096;2023-03-04T02:21:31;17.70;85.90
33508;DHT22;25568;37.410;-122.096;2023-03-04T02:24:06;17.70;85.90
33508;DHT22;25568;37.410;-122.096;2023-03-04T02:26:41;17.70;85.80
33508;DHT22;25568;37.410;-122.096;2023-03-04T02:29:11;17.70;85.80
33508;DHT22;25568;37.410;-122.096;2023-03-04T02:31:42;17.70;85.80
33508;DHT22;25568;37.410;-122.096;2023-03-04T02:34:13;17.70;85.80
33508;DHT22;25568;37.410;-122.096;2023-03-04T02:36:47;17.70;85.70
33508;DHT22;25568;37.410;-122.096;2023-03-04T02:39:24;17.70;85.60
33508;DHT22;25568;37.410;-122.096;2023-03-04T02:41:57;17.60;85.60
33508;DHT22;25568;37.410;-122.096;2023-03-04T02:44:28;17.60;85.60
33508;DHT22;25568;37.410;-122.096;2023-03-04T02:46:57;17.60;85.60
33508;DHT22;25568;37.410;-122.096;2023-03-04T02:49:28;17.60;85.50
33508;DHT22;25568;37.410;-122.096;2023-03-04T02:52:02;17.60;85.50
33508;DHT22;25568;37.410;-122.096;2023-03-04T02:54:31;17.60;85.50
33508;DHT22;25568;37.410;-122.096;2023-03-04T02:57:05;17.60;85.30
33508;DHT22;25568;37.410;-122.096;2023-03-04T02:59:35;17.60;85.30
33508;DHT22;25568;37.410;-122.096;2023-03-04T03:02:04;17.60;85.30
33508;DHT22;25568;37.410;-122.096;2023-03-04T03:04:34;17.60;85.10
33508;DHT22;25568;37.410;-122.096;2023-03-04T03:07:03;17.60;85.00
33508;DHT22;25568;37.410;-122.096;2023-03-04T03:09:32;17.60;84.90
33508;DHT22;25568;37.410;-122.096;2023-03-04T03:12:03;17.70;84.90
33508;DHT22;25568;37.410;-122.096;2023-03-04T03:14:31;17.70;84.80
33508;DHT22;25568;37.410;-122.096;2023-03-04T03:17:00;17.70;84.90
33508;DHT22;25568;37.410;-122.096;2023-03-04T03:19:29;17.60;84.70
33508;DHT22;25568;37.410;-122.096;2023-03-04T03:21:58;17.70;84.80
33508;DHT22;25568;37.410;-122.096;2023-03-04T03:24:27;17.70;84.80
33508;DHT22;25568;37.410;-122.096;2023-03-04T03:26:56;17.70;84.90
33508;DHT22;25568;37.410;-122.096;2023-03-04T03:29:27;17.70;84.90
33508;DHT22;25568;37.410;-122.096;2023-03-04T03:31:55;17.70;84.90
33508;DHT22;25568;37.410;-122.096;2023-03-04T03:34:24;17.60;84.80
33508;DHT22;25568;37.410;-122.096;2023-03-04T03:36:53;17.60;84.90
33508;DHT22;25568;37.410;-122.096;2023-03-04T03:39:22;17.70;85.00
33508;DHT22;25568;37.410;-122.096;2023-03-04T03:41:51;17.60;84.90
33508;DHT22;25568;37.410;-122.096;2023-03-04T03:44:19;17.70;85.00
33508;DHT22;25568;37.410;-122.096;2023-03-04T03:46:50;17.60;85.00
33508;DHT22;25568;37.410;-122.096;2023-03-04T03:49:19;17.60;85.00
33508;DHT22;25568;37.410;-122.096;2023-03-04T03:51:48;17.70;85.00
33508;DHT22;25568;37.410;-122.096;2023-03-04T03:54:16;17.60;85.00
33508;DHT22;25568;37.410;-122.096;2023-03-04T03:56:45;17.60;85.00
33508;DHT22;25568;37.410;-122.096;2023-03-04T03:59:14;17.60;85.10
33508;DHT22;25568;37.410;-122.096;2023-03-04T04:01:43;17.60;85.10
33508;DHT22;25568;37.410;-122.096;2023-03-04T04:04:13;17.60;85.20
33508;DHT22;25568;37.410;-122.096;2023-03-04T04:06:42;17.60;85.30
33508;DHT22;25568;37.410;-122.096;2023-03-04T04:09:11;17.60;85.30
33508;DHT22;25568;37.410;-122.096;2023-03-04T04:11:40;17.60;85.30
33508;DHT22;25568;37.410;-122.096;2023-03-04T04:14:11;17.60;85.30
33508;DHT22;25568;37.410;-122.096;2023-03-04T04:16:40;17.50;85.30
33508;DHT22;25568;37.410;-122.096;2023-03-04T04:19:17;17.60;85.40
33508;DHT22;25568;37.410;-122.096;2023-03-04T04:21:46;17.60;85.40
33508;DHT22;25568;37.410;-122.096;2023-03-04T04:24:16;17.50;85.30
33508;DHT22;25568;37.410;-122.096;2023-03-04T04:26:45;17.50;85.30
33508;DHT22;25568;37.410;-122.096;2023-03-04T04:29:14;17.60;85.50
33508;DHT22;25568;37.410;-122.096;2023-03-04T04:31:43;17.50;85.50
33508;DHT22;25568;37.410;-122.096;2023-03-04T04:34:11;17.50;85.50
33508;DHT22;25568;37.410;-122.096;2023-03-04T04:36:42;17.60;85.60
33508;DHT22;25568;37.410;-122.096;2023-03-04T04:39:11;17.60;85.60
33508;DHT22;25568;37.410;-122.096;2023-03-04T04:41:41;17.50;85.50
33508;DHT22;25568;37.410;-122.096;2023-03-04T04:44:11;17.60;85.50
33508;DHT22;25568;37.410;-122.096;2023-03-04T04:46:40;17.50;85.50
33508;DHT22;25568;37.410;-122.096;2023-03-04T04:49:09;17.50;85.40
33508;DHT22;25568;37.410;-122.096;2023-03-04T04:51:38;17.50;85.40
33508;DHT22;25568;37.410;-122.096;2023-03-04T04:54:14;17.50;85.40
33508;DHT22;25568;37.410;-122.096;2023-03-04T04:56:43;17.50;85.40
33508;DHT22;25568;37.410;-122.096;2023-03-04T04:59:11;17.40;85.40
33508;DHT22;25568;37.410;-122.096;2023-03-04T05:01:40;17.50;85.40
33508;DHT22;25568;37.410;-122.096;2023-03-04T05:04:09;17.40;85.40
33508;DHT22;25568;37.410;-122.096;2023-03-04T05:06:38;17.40;85.30
33508;DHT22;25568;37.410;-122.096;2023-03-04T05:09:09;17.40;85.30
33508;DHT22;25568;37.410;-122.096;2023-03-04T05:11:38;17.40;85.30
33508;DHT22;25568;37.410;-122.096;2023-03-04T05:14:07;17.40;85.30
33508;DHT22;25568;37.410;-122.096;2023-03-04T05:16:35;17.40;85.30
33508;DHT22;25568;37.410;-122.096;2023-03-04T05:19:05;17.40;85.30
33508;DHT22;25568;37.410;-122.096;2023-03-04T05:21:34;17.40;85.30
33508;DHT22;25568;37.410;-122.096;2023-03-04T05:24:03;17.40;85.30
33508;DHT22;25568;37.410;-122.096;2023-03-04T05:26:33;17.40;85.30
33508;DHT22;25568;37.410;-122.096;2023-03-04T05:29:02;17.40;85.30
33508;DHT22;25568;37.410;-122.096;2023-03-04T05:31:31;17.40;85.30
33508;DHT22;25568;37.410;-122.096;2023-03-04T05:34:00;17.30;85.30
33508;DHT22;25568;37.410;-122.096;2023-03-04T05:36:28;17.30;85.30
33508;DHT22;25568;37.410;-122.096;2023-03-04T05:38:57;17.30;85.30
33508;DHT22;25568;37.410;-122.096;2023-03-04T05:41:26;17.30;85.30
33508;DHT22;25568;37.410;-122.096;2023-03-04T05:43:57;17.30;85.30
33508;DHT22;25568;37.410;-122.096;2023-03-04T05:46:25;17.30;85.30
33508;DHT22;25568;37.410;-122.096;2023-03-04T05:48:54;17.30;85.30
33508;DHT22;25568;37.410;-122.096;2023-03-04T05:51:23;17.30;85.30
33508;DHT22;25568;37.410;-122.096;2023-03-04T05:53:52;17.30;85.30
33508;DHT22;25568;37.410;-122.096;2023-03-04T05:56:21;17.30;85.40
33508;DHT22;25568;37.410;-122.096;2023-03-04T05:58:50;17.20;85.80
33508;DHT22;25568;37.410;-122.096;2023-03-04T06:01:20;17.20;85.30
33508;DHT22;25568;37.410;-122.096;2023-03-04T06:03:49;17.20;85.40
33508;DHT22;25568;37.410;-122.096;2023-03-04T06:06:18;17.20;85.40
33508;DHT22;25568;37.410;-122.096;2023-03-04T06:08:47;17.20;85.40
33508;DHT22;25568;37.410;-122.096;2023-03-04T06:11:15;17.20;85.50
33508;DHT22;25568;37.410;-122.096;2023-03-04T06:13:44;17.20;85.50
33508;DHT22;25568;37.410;-122.096;2023-03-04T06:16:13;17.20;85.60
33508;DHT22;25568;37.410;-122.096;2023-03-04T06:18:43;17.20;85.60
33508;DHT22;25568;37.410;-122.096;2023-03-04T06:21:12;17.20;85.60
33508;DHT22;25568;37.410;-122.096;2023-03-04T06:23:41;17.20;85.60
33508;DHT22;25568;37.410;-122.096;2023-03-04T06:26:10;17.10;85.40
33508;DHT22;25568;37.410;-122.096;2023-03-04T06:28:43;17.10;85.60
33508;DHT22;25568;37.410;-122.096;2023-03-04T06:31:12;17.10;85.60
33508;DHT22;25568;37.410;-122.096;2023-03-04T06:33:42;17.10;85.60
33508;DHT22;25568;37.410;-122.096;2023-03-04T06:36:11;17.10;85.60
33508;DHT22;25568;37.410;-122.096;2023-03-04T06:38:40;17.10;85.60
33508;DHT22;25568;37.410;-122.096;2023-03-04T06:41:10;17.10;85.60
33508;DHT22;25568;37.410;-122.096;2023-03-04T06:43:39;17.10;85.60
33508;DHT22;25568;37.410;-122.096;2023-03-04T06:46:08;17.10;85.60
33508;DHT22;25568;37.410;-122.096;2023-03-04T06:48:42;17.10;85.60
33508;DHT22;25568;37.410;-122.096;2023-03-04T06:51:11;17.00;86.40
33508;DHT22;25568;37.410;-122.096;2023-03-04T06:53:40;17.00;85.60
33508;DHT22;25568;37.410;-122.096;2023-03-04T06:56:11;17.00;85.80
33508;DHT22;25568;37.410;-122.096;2023-03-04T06:58:41;17.00;85.60
33508;DHT22;25568;37.410;-122.096;2023-03-04T07:01:12;17.00;85.70
33508;DHT22;25568;37.410;-122.096;2023-03-04T07:03:42;17.00;85.70
33508;DHT22;25568;37.410;-122.096;2023-03-04T07:06:12;17.00;85.80
33508;DHT22;25568;37.410;-122.096;2023-03-04T07:08:42;17.00;85.70
33508;DHT22;25568;37.410;-122.096;2023-03-04T07:11:11;17.00;85.80
33508;DHT22;25568;37.410;-122.096;2023-03-04T07:13:40;16.90;85.70
33508;DHT22;25568;37.410;-122.096;2023-03-04T07:16:11;16.90;85.70
33508;DHT22;25568;37.410;-122.096;2023-03-04T07:18:42;16.90;85.70
33508;DHT22;25568;37.410;-122.096;2023-03-04T07:21:12;16.90;85.80
33508;DHT22;25568;37.410;-122.096;2023-03-04T07:23:42;16.90;85.90
33508;DHT22;25568;37.410;-122.096;2023-03-04T07:26:11;16.90;86.10
33508;DHT22;25568;37.410;-122.096;2023-03-04T07:28:40;16.90;86.20
33508;DHT22;25568;37.410;-122.096;2023-03-04T07:31:11;16.90;86.30
33508;DHT22;25568;37.410;-122.096;2023-03-04T07:33:42;16.90;86.40
33508;DHT22;25568;37.410;-122.096;2023-03-04T07:36:11;16.90;86.60
33508;DHT22;25568;37.410;-122.096;2023-03-04T07:38:43;16.90;86.90
33508;DHT22;25568;37.410;-122.096;2023-03-04T07:41:12;16.90;87.40
33508;DHT22;25568;37.410;-122.096;2023-03-04T07:43:41;16.80;87.20
33508;DHT22;25568;37.410;-122.096;2023-03-04T07:46:10;16.80;87.20
33508;DHT22;25568;37.410;-122.096;2023-03-04T07:48:39;16.80;87.30
33508;DHT22;25568;37.410;-122.096;2023-03-04T07:51:11;16.80;87.40
33508;DHT22;25568;37.410;-122.096;2023-03-04T07:53:41;16.80;87.50
33508;DHT22;25568;37.410;-122.096;2023-03-04T07:56:12;16.80;87.60
33508;DHT22;25568;37.410;-122.096;2023-03-04T07:58:42;16.80;87.70
33508;DHT22;25568;37.410;-122.096;2023-03-04T08:01:12;16.80;87.70
33508;DHT22;25568;37.410;-122.096;2023-03-04T08:03:41;16.80;87.80
33508;DHT22;25568;37.410;-122.096;2023-03-04T08:06:14;16.80;87.80
33508;DHT22;25568;37.410;-122.096;2023-03-04T08:08:43;16.70;87.90
33508;DHT22;25568;37.410;-122.096;2023-03-04T08:11:13;16.70;88.00
33508;DHT22;25568;37.410;-122.096;2023-03-04T08:13:42;16.70;88.10
33508;DHT22;25568;37.410;-122.096;2023-03-04T08:16:12;16.70;88.10
33508;DHT22;25568;37.410;-122.096;2023-03-04T08:18:42;16.70;88.20
33508;DHT22;25568;37.410;-122.096;2023-03-04T08:21:13;16.70;88.20
33508;DHT22;25568;37.410;-122.096;2023-03-04T08:23:44;16.70;88.30
33508;DHT22;25568;37.410;-122.096;2023-03-04T08:26:15;16.70;88.50
33508;DHT22;25568;37.410;-122.096;2023-03-04T08:28:44;16.70;88.50
33508;DHT22;25568;37.410;-122.096;2023-03-04T08:31:14;16.70;88.60
33508;DHT22;25568;37.410;-122.096;2023-03-04T08:33:43;16.70;88.70
33508;DHT22;25568;37.410;-122.096;2023-03-04T08:36:14;16.60;88.80
33508;DHT22;25568;37.410;-122.096;2023-03-04T08:38:43;16.60;89.00
33508;DHT22;25568;37.410;-122.096;2023-03-04T08:41:12;16.70;89.10
33508;DHT22;25568;37.410;-122.096;2023-03-04T08:43:41;16.60;89.10
33508;DHT22;25568;37.410;-122.096;2023-03-04T08:46:10;16.60;89.20
33508;DHT22;25568;37.410;-122.096;2023-03-04T08:48:39;16.60;89.40
33508;DHT22;25568;37.410;-122.096;2023-03-04T08:51:09;16.60;89.40
33508;DHT22;25568;37.410;-122.096;2023-03-04T08:53:40;16.60;89.40
33508;DHT22;25568;37.410;-122.096;2023-03-04T08:56:10;16.60;89.50
33508;DHT22;25568;37.410;-122.096;2023-03-04T08:58:39;16.60;89.50
33508;DHT22;25568;37.410;-122.096;2023-03-04T09:01:10;16.60;89.60
33508;DHT22;25568;37.410;-122.096;2023-03-04T09:03:40;16.50;89.60
33508;DHT22;25568;37.410;-122.096;2023-03-04T09:06:10;16.60;89.70
33508;DHT22;25568;37.410;-122.096;2023-03-04T09:08:42;16.60;89.80
33508;DHT22;25568;37.410;-122.096;2023-03-04T09:11:11;16.60;89.90
33508;DHT22;25568;37.410;-122.096;2023-03-04T09:13:40;16.60;89.90
33508;DHT22;25568;37.410;-122.096;2023-03-04T09:16:09;16.50;90.00
33508;DHT22;25568;37.410;-122.096;2023-03-04T09:18:39;16.50;90.00
33508;DHT22;25568;37.410;-122.096;2023-03-04T09:21:08;16.50;90.00
33508;DHT22;25568;37.410;-122.096;2023-03-04T09:23:37;16.50;90.10
33508;DHT22;25568;37.410;-122.096;2023-03-04T09:26:21;16.50;90.10
33508;DHT22;25568;37.410;-122.096;2023-03-04T09:28:50;16.50;90.20
33508;DHT22;25568;37.410;-122.096;2023-03-04T09:31:20;16.50;90.20
33508;DHT22;25568;37.410;-122.096;2023-03-04T09:33:49;16.50;90.30
33508;DHT22;25568;37.410;-122.096;2023-03-04T09:36:18;16.50;90.30
33508;DHT22;25568;37.410;-122.096;2023-03-04T09:38:47;16.50;90.40
33508;DHT22;25568;37.410;-122.096;2023-03-04T09:41:20;16.50;90.40
33508;DHT22;25568;37.410;-122.096;2023-03-04T09:43:50;16.50;90.40
33508;DHT22;25568;37.410;-122.096;2023-03-04T09:46:28;16.50;90.60
33508;DHT22;25568;37.410;-122.096;2023-03-04T09:49:00;16.40;90.50
33508;DHT22;25568;37.410;-122.096;2023-03-04T09:51:47;16.40;90.60
33508;DHT22;25568;37.410;-122.096;2023-03-04T09:54:35;16.40;91.00
33508;DHT22;25568;37.410;-122.096;2023-03-04T09:57:21;16.40;90.70
33508;DHT22;25568;37.410;-122.096;2023-03-04T09:59:59;16.40;90.90
33508;DHT22;25568;37.410;-122.096;2023-03-04T10:02:43;16.50;91.00
33508;DHT22;25568;37.410;-122.096;2023-03-04T10:05:16;16.40;91.00
33508;DHT22;25568;37.410;-122.096;2023-03-04T10:07:53;16.40;91.10
33508;DHT22;25568;37.410;-122.096;2023-03-04T10:10:27;16.40;91.10
33508;DHT22;25568;37.410;-122.096;2023-03-04T10:13:00;16.40;91.10
33508;DHT22;25568;37.410;-122.096;2023-03-04T10:15:34;16.40;91.10
33508;DHT22;25568;37.410;-122.096;2023-03-04T10:18:12;16.40;91.10
33508;DHT22;25568;37.410;-122.096;2023-03-04T10:20:53;16.40;91.20
33508;DHT22;25568;37.410;-122.096;2023-03-04T10:23:25;16.40;91.20
33508;DHT22;25568;37.410;-122.096;2023-03-04T10:25:55;16.40;91.30
33508;DHT22;25568;37.410;-122.096;2023-03-04T10:28:26;16.40;91.30
33508;DHT22;25568;37.410;-122.096;2023-03-04T10:30:59;16.40;91.30
33508;DHT22;25568;37.410;-122.096;2023-03-04T10:33:31;16.40;91.30
33508;DHT22;25568;37.410;-122.096;2023-03-04T10:36:03;16.40;91.40
33508;DHT22;25568;37.410;-122.096;2023-03-04T10:38:33;16.40;91.40
33508;DHT22;25568;37.410;-122.096;2023-03-04T10:41:11;16.30;91.40
33508;DHT22;25568;37.410;-122.096;2023-03-04T10:43:43;16.30;91.50
33508;DHT22;25568;37.410;-122.096;2023-03-04T10:46:17;16.30;91.50
33508;DHT22;25568;37.410;-122.096;2023-03-04T10:48:48;16.30;91.70
33508;DHT22;25568;37.410;-122.096;2023-03-04T10:51:20;16.30;91.70
33508;DHT22;25568;37.410;-122.096;2023-03-04T10:53:50;16.30;91.70
33508;DHT22;25568;37.410;-122.096;2023-03-04T10:56:35;16.30;92.10
33508;DHT22;25568;37.410;-122.096;2023-03-04T10:59:30;16.30;91.80
33508;DHT22;25568;37.410;-122.096;2023-03-04T11:02:05;16.30;91.80
33508;DHT22;25568;37.410;-122.096;2023-03-04T11:04:38;16.30;91.80
33508;DHT22;25568;37.410;-122.096;2023-03-04T11:07:08;16.30;91.90
33508;DHT22;25568;37.410;-122.096;2023-03-04T11:09:37;16.30;91.90
33508;DHT22;25568;37.410;-122.096;2023-03-04T11:12:11;16.30;91.90
33508;DHT22;25568;37.410;-122.096;2023-03-04T11:14:55;16.30;91.90
33508;DHT22;25568;37.410;-122.096;2023-03-04T11:17:26;16.30;92.00
33508;DHT22;25568;37.410;-122.096;2023-03-04T11:19:58;16.30;92.00
33508;DHT22;25568;37.410;-122.096;2023-03-04T11:22:31;16.30;92.00
33508;DHT22;25568;37.410;-122.096;2023-03-04T11:25:02;16.30;92.00
33508;DHT22;25568;37.410;-122.096;2023-03-04T11:27:38;16.30;92.00
33508;DHT22;25568;37.410;-122.096;2023-03-04T11:30:28;16.30;92.00
33508;DHT22;25568;37.410;-122.096;2023-03-04T11:33:11;16.30;92.10
33508;DHT22;25568;37.410;-122.096;2023-03-04T11:35:49;16.30;92.10
33508;DHT22;25568;37.410;-122.096;2023-03-04T11:38:22;16.30;92.10
33508;DHT22;25568;37.410;-122.096;2023-03-04T11:40:54;16.20;92.10
33508;DHT22;25568;37.410;-122.096;2023-03-04T11:43:29;16.20;92.10
33508;DHT22;25568;37.410;-122.096;2023-03-04T11:46:17;16.20;92.20
33508;DHT22;25568;37.410;-122.096;2023-03-04T11:48:58;16.30;92.50
33508;DHT22;25568;37.410;-122.096;2023-03-04T11:51:38;16.20;92.20
33508;DHT22;25568;37.410;-122.096;2023-03-04T11:54:21;16.20;92.20
33508;DHT22;25568;37.410;-122.096;2023-03-04T11:56:58;16.20;92.20
33508;DHT22;25568;37.410;-122.096;2023-03-04T11:59:43;16.20;92.20
33508;DHT22;25568;37.410;-122.096;2023-03-04T12:02:17;16.20;92.20
33508;DHT22;25568;37.410;-122.096;2023-03-04T12:05:08;16.20;92.30
33508;DHT22;25568;37.410;-122.096;2023-03-04T12:07:50;16.20;92.20
33508;DHT22;25568;37.410;-122.096;2023-03-04T12:10:26;16.10;92.20
33508;DHT22;25568;37.410;-122.096;2023-03-04T12:13:19;16.10;92.20
33508;DHT22;25568;37.410;-122.096;2023-03-04T12:15:58;16.10;92.20
33508;DHT22;25568;37.410;-122.096;2023-03-04T12:18:43;16.10;92.20
33508;DHT22;25568;37.410;-122.096;2023-03-04T12:21:23;16.10;92.20
33508;DHT22;25568;37.410;-122.096;2023-03-04T12:27:12;16.10;92.30
33508;DHT22;25568;37.410;-122.096;2023-03-04T12:29:52;16.10;92.30
33508;DHT22;25568;37.410;-122.096;2023-03-04T12:32:30;16.10;92.30
33508;DHT22;25568;37.410;-122.096;2023-03-04T12:35:26;16.10;92.30
33508;DHT22;25568;37.410;-122.096;2023-03-04T12:41:03;16.10;92.40
33508;DHT22;25568;37.410;-122.096;2023-03-04T12:43:48;16.10;92.40
33508;DHT22;25568;37.410;-122.096;2023-03-04T12:46:30;16.10;92.40
33508;DHT22;25568;37.410;-122.096;2023-03-04T12:49:19;16.10;92.40
33508;DHT22;25568;37.410;-122.096;2023-03-04T12:51:57;16.10;92.50
33508;DHT22;25568;37.410;-122.096;2023-03-04T12:54:31;16.10;92.50
33508;DHT22;25568;37.410;-122.096;2023-03-04T12:57:05;16.10;92.50
33508;DHT22;25568;37.410;-122.096;2023-03-04T12:59:41;16.10;92.50
33508;DHT22;25568;37.410;-122.096;2023-03-04T13:02:33;16.00;92.50
33508;DHT22;25568;37.410;-122.096;2023-03-04T13:05:15;16.00;92.50
33508;DHT22;25568;37.410;-122.096;2023-03-04T13:07:55;16.00;92.50
33508;DHT22;25568;37.410;-122.096;2023-03-04T13:10:27;16.00;92.50
33508;DHT22;25568;37.410;-122.096;2023-03-04T13:12:56;16.00;92.50
33508;DHT22;25568;37.410;-122.096;2023-03-04T13:15:31;16.00;92.50
33508;DHT22;25568;37.410;-122.096;2023-03-04T13:18:03;16.00;92.50
33508;DHT22;25568;37.410;-122.096;2023-03-04T13:20:35;16.00;92.60
33508;DHT22;25568;37.410;-122.096;2023-03-04T13:23:26;16.00;92.60
33508;DHT22;25568;37.410;-122.096;2023-03-04T13:26:16;16.00;92.60
33508;DHT22;25568;37.410;-122.096;2023-03-04T13:28:52;16.00;92.60
33508;DHT22;25568;37.410;-122.096;2023-03-04T13:31:26;16.00;92.60
33508;DHT22;25568;37.410;-122.096;2023-03-04T13:34:00;15.90;92.60
33508;DHT22;25568;37.410;-122.096;2023-03-04T13:36:56;15.90;92.60
33508;DHT22;25568;37.410;-122.096;2023-03-04T13:39:37;15.90;92.60
33508;DHT22;25568;37.410;-122.096;2023-03-04T13:42:38;15.90;92.60
33508;DHT22;25568;37.410;-122.096;2023-03-04T13:45:33;15.90;92.60
33508;DHT22;25568;37.410;-122.096;2023-03-04T13:48:06;15.90;92.60
33508;DHT22;25568;37.410;-122.096;2023-03-04T13:50:44;15.90;92.60
33508;DHT22;25568;37.410;-122.096;2023-03-04T13:53:37;15.90;92.60
33508;DHT22;25568;37.410;-122.096;2023-03-04T13:56:27;15.90;92.60
33508;DHT22;25568;37.410;-122.096;2023-03-04T13:59:11;15.90;92.60
33508;DHT22;25568;37.410;-122.096;2023-03-04T14:02:02;15.80;92.60
33508;DHT22;25568;37.410;-122.096;2023-03-04T14:04:39;15.90;92.70
33508;DHT22;25568;37.410;-122.096;2023-03-04T14:07:21;15.90;92.70
33508;DHT22;25568;37.410;-122.096;2023-03-04T14:09:57;15.90;92.80
33508;DHT22;25568;37.410;-122.096;2023-03-04T14:12:30;15.80;92.70
33508;DHT22;25568;37.410;-122.096;2023-03-04T14:15:00;15.80;92.80
33508;DHT22;25568;37.410;-122.096;2023-03-04T14:17:32;15.80;92.80
33508;DHT22;25568;37.410;-122.096;2023-03-04T14:20:03;15.80;92.80
33508;DHT22;25568;37.410;-122.096;2023-03-04T14:22:37;15.80;92.80
33508;DHT22;25568;37.410;-122.096;2023-03-04T14:25:18;15.80;92.80
33508;DHT22;25568;37.410;-122.096;2023-03-04T14:27:55;15.80;92.80
33508;DHT22;25568;37.410;-122.096;2023-03-04T14:30:29;15.80;92.90
33508;DHT22;25568;37.410;-122.096;2023-03-04T14:32:59;15.80;92.90
33508;DHT22;25568;37.410;-122.096;2023-03-04T14:35:30;15.80;92.90
33508;DHT22;25568;37.410;-122.096;2023-03-04T14:38:02;15.80;92.90
33508;DHT22;25568;37.410;-122.096;2023-03-04T14:40:34;15.80;92.90
33508;DHT22;25568;37.410;-122.096;2023-03-04T14:43:10;15.80;92.90
33508;DHT22;25568;37.410;-122.096;2023-03-04T14:45:42;15.80;92.90
33508;DHT22;25568;37.410;-122.096;2023-03-04T14:48:19;15.80;93.00
33508;DHT22;25568;37.410;-122.096;2023-03-04T14:50:49;15.80;93.00
33508;DHT22;25568;37.410;-122.096;2023-03-04T14:53:19;15.80;93.00
33508;DHT22;25568;37.410;-122.096;2023-03-04T14:55:57;15.70;92.90
33508;DHT22;25568;37.410;-122.096;2023-03-04T14:58:28;15.70;93.30
33508;DHT22;25568;37.410;-122.096;2023-03-04T15:01:07;15.70;93.00
33508;DHT22;25568;37.410;-122.096;2023-03-04T15:03:41;15.70;93.00
33508;DHT22;25568;37.410;-122.096;2023-03-04T15:06:19;15.70;93.00
33508;DHT22;25568;37.410;-122.096;2023-03-04T15:08:56;15.70;93.10
33508;DHT22;25568;37.410;-122.096;2023-03-04T15:11:27;15.70;93.10
33508;DHT22;25568;37.410;-122.096;2023-03-04T15:13:59;15.70;93.10
33508;DHT22;25568;37.410;-122.096;2023-03-04T15:16:51;15.70;93.10
33508;DHT22;25568;37.410;-122.096;2023-03-04T15:19:25;15.80;93.20
33508;DHT22;25568;37.410;-122.096;2023-03-04T15:22:03;15.70;93.10
33508;DHT22;25568;37.410;-122.096;2023-03-04T15:24:32;15.70;93.10
33508;DHT22;25568;37.410;-122.096;2023-03-04T15:27:01;15.70;93.10